Time;durP1;ratioP1;P1;durP2;ratioP2;P2;SDS_P1;SDS_P2;PMS_P1;PMS_P2;Temp;Humidity;BMP_temperature;BMP_pressure;BME280_temperature;BME280_humidity;BME280_pressure;Samples;Min_cycle;Max_cycle;Signal;HPM_P1;HPM_P2
2022/07/30 07:06:09;;;;;;;5.80;4.68;;;;;;;;;;12877305;22;1502913;-81
2022/07/30 07:11:12;;;;;;;5.70;4.57;;;;;;;;;;12856718;23;20049;-85
2022/07/30 07:21:58;;;;;;;9.18;8.07;;;;;;;;;;12874036;23;19996;-86
2022/07/30 07:27:07;;;;;;;11.23;9.20;;;;;;;;;;12824749;23;20325;-86
2022/07/30 07:32:09;;;;;;;14.52;11.40;;;;;;;;;;12844646;23;20060;-86
2022/07/30 07:37:10;;;;;;;15.57;12.25;;;;;;;;;;12848904;23;20005;-86
2022/07/30 07:42:11;;;;;;;18.63;15.05;;;;;;;;;;12858358;23;20004;-85
2022/07/30 07:47:12;;;;;;;19.67;17.35;;;;;;;;;;12845177;23;20032;-85
2022/07/30 07:52:14;;;;;;;20.90;17.98;;;;;;;;;;12851168;23;20011;-85
2022/07/30 07:57:15;;;;;;;21.52;19.23;;;;;;;;;;12851438;23;20055;-86
2022/07/30 08:02:16;;;;;;;22.05;19.70;;;;;;;;;;12850615;23;20004;-84
2022/07/30 08:07:17;;;;;;;22.08;19.30;;;;;;;;;;12850671;23;20054;-84
2022/07/30 08:12:18;;;;;;;19.08;17.08;;;;;;;;;;12848825;23;20036;-85
2022/07/30 08:17:19;;;;;;;17.70;15.48;;;;;;;;;;12852503;23;20004;-86
2022/07/30 08:22:20;;;;;;;16.65;14.23;;;;;;;;;;12868201;22;20020;-80
2022/07/30 08:27:21;;;;;;;16.38;14.40;;;;;;;;;;12912507;23;20084;-81
2022/07/30 08:32:22;;;;;;;15.18;13.30;;;;;;;;;;12963173;22;19996;-81
2022/07/30 08:37:23;;;;;;;15.05;13.32;;;;;;;;;;12977253;22;20008;-81
2022/07/30 08:42:25;;;;;;;14.85;11.45;;;;;;;;;;12976595;22;20019;-81
2022/07/30 08:47:31;;;;;;;13.75;12.45;;;;;;;;;;12985673;22;20428;-80
2022/07/30 08:52:32;;;;;;;11.98;10.85;;;;;;;;;;12993510;22;20006;-80
2022/07/30 08:57:34;;;;;;;11.23;9.82;;;;;;;;;;12989607;22;20011;-80
2022/07/30 09:02:35;;;;;;;10.68;9.50;;;;;;;;;;12983145;22;20007;-81
2022/07/30 09:07:36;;;;;;;10.30;9.25;;;;;;;;;;13003793;22;19999;-80
2022/07/30 09:12:39;;;;;;;8.63;7.72;;;;;;;;;;12973731;22;20007;-81
2022/07/30 09:17:52;;;;;;;9.57;8.60;;;;;;;;;;12974874;22;20062;-81
2022/07/30 09:22:54;;;;;;;10.80;8.05;;;;;;;;;;13003225;22;20007;-81
2022/07/30 09:27:55;;;;;;;9.38;8.32;;;;;;;;;;12971054;22;20008;-79
2022/07/30 09:32:57;;;;;;;7.20;6.50;;;;;;;;;;12969357;22;20027;-78
2022/07/30 09:37:59;;;;;;;12.55;10.07;;;;;;;;;;12994394;22;20010;-80
2022/07/30 09:43:06;;;;;;;11.30;8.77;;;;;;;;;;12996325;22;20078;-79
2022/07/30 09:48:19;;;;;;;13.00;10.02;;;;;;;;;;12994772;22;20000;-79
2022/07/30 09:53:21;;;;;;;9.65;6.65;;;;;;;;;;12969498;22;20003;-79
2022/07/30 09:58:55;;;;;;;9.07;7.80;;;;;;;;;;12998288;22;20038;-80
2022/07/30 10:03:58;;;;;;;7.88;5.45;;;;;;;;;;12971449;22;20391;-80
2022/07/30 10:08:59;;;;;;;8.02;5.80;;;;;;;;;;12977973;22;20087;-80
2022/07/30 10:14:00;;;;;;;6.97;4.72;;;;;;;;;;12970501;22;20457;-80
2022/07/30 10:19:02;;;;;;;6.32;4.70;;;;;;;;;;13000460;22;20411;-81
2022/07/30 10:24:03;;;;;;;8.23;4.40;;;;;;;;;;12971205;22;20007;-80
2022/07/30 10:29:04;;;;;;;6.65;4.43;;;;;;;;;;12973860;22;20054;-81
2022/07/30 10:34:06;;;;;;;6.20;4.30;;;;;;;;;;12971313;22;20007;-82
2022/07/30 10:39:08;;;;;;;6.40;4.22;;;;;;;;;;12970468;22;20003;-81
2022/07/30 10:44:27;;;;;;;6.18;4.50;;;;;;;;;;12972134;22;20031;-81
2022/07/30 10:49:29;;;;;;;5.73;3.73;;;;;;;;;;13006252;22;20459;-82
2022/07/30 10:54:33;;;;;;;4.38;3.42;;;;;;;;;;12975426;22;20317;-80
2022/07/30 10:59:49;;;;;;;8.52;4.47;;;;;;;;;;12977008;22;20016;-80
2022/07/30 11:04:50;;;;;;;5.90;4.13;;;;;;;;;;12973895;22;20008;-79
2022/07/30 11:09:52;;;;;;;5.65;3.80;;;;;;;;;;12999783;22;20066;-80
2022/07/30 11:14:57;;;;;;;4.70;3.20;;;;;;;;;;12997960;22;20004;-79
2022/07/30 11:20:06;;;;;;;4.03;2.72;;;;;;;;;;12973382;22;20427;-79
2022/07/30 11:25:08;;;;;;;4.20;2.90;;;;;;;;;;12972837;22;20015;-79
2022/07/30 11:30:15;;;;;;;6.05;3.47;;;;;;;;;;12972500;22;20003;-78
2022/07/30 11:35:26;;;;;;;4.05;2.35;;;;;;;;;;12973303;22;20008;-78
2022/07/30 11:40:35;;;;;;;6.07;3.75;;;;;;;;;;12996646;22;19996;-78
2022/07/30 11:45:36;;;;;;;4.35;2.60;;;;;;;;;;12997272;22;19996;-78
2022/07/30 11:50:38;;;;;;;4.50;2.72;;;;;;;;;;12995273;22;20432;-79
2022/07/30 11:55:41;;;;;;;4.00;2.60;;;;;;;;;;13000290;22;19999;-79
2022/07/30 12:00:46;;;;;;;4.45;2.00;;;;;;;;;;12969883;22;20007;-80
2022/07/30 12:05:48;;;;;;;3.75;2.50;;;;;;;;;;12970327;22;20320;-80
2022/07/30 12:10:57;;;;;;;4.15;2.30;;;;;;;;;;12970024;22;19999;-80
2022/07/30 12:15:58;;;;;;;2.92;2.22;;;;;;;;;;12969763;22;20485;-78
2022/07/30 12:21:01;;;;;;;2.70;1.80;;;;;;;;;;12970595;22;20335;-79
2022/07/30 12:26:02;;;;;;;4.78;2.30;;;;;;;;;;13000080;22;20007;-80
2022/07/30 12:31:03;;;;;;;3.55;1.83;;;;;;;;;;13017722;22;20035;-81
2022/07/30 12:36:05;;;;;;;5.63;2.40;;;;;;;;;;12977975;22;20007;-81
2022/07/30 12:41:06;;;;;;;3.75;2.60;;;;;;;;;;12975536;22;20391;-80
2022/07/30 12:46:07;;;;;;;3.22;1.95;;;;;;;;;;12975187;22;20004;-80
2022/07/30 12:51:12;;;;;;;3.25;1.92;;;;;;;;;;13000594;22;20332;-80
2022/07/30 12:56:14;;;;;;;2.90;1.90;;;;;;;;;;13000596;22;20003;-81
2022/07/30 13:01:15;;;;;;;5.80;2.20;;;;;;;;;;12972603;22;19999;-81
2022/07/30 13:06:16;;;;;;;3.53;1.67;;;;;;;;;;12971985;22;20442;-81
2022/07/30 13:11:18;;;;;;;3.35;1.90;;;;;;;;;;12972733;22;20008;-81
2022/07/30 13:16:20;;;;;;;3.50;1.60;;;;;;;;;;12999294;22;20004;-81
2022/07/30 13:21:21;;;;;;;2.78;2.00;;;;;;;;;;12971679;22;20000;-81
2022/07/30 13:26:22;;;;;;;4.50;1.70;;;;;;;;;;12972123;22;20011;-81
2022/07/30 13:31:23;;;;;;;2.40;1.65;;;;;;;;;;12969482;22;20004;-80
2022/07/30 13:36:24;;;;;;;3.10;2.13;;;;;;;;;;12968890;22;20010;-80
2022/07/30 13:41:26;;;;;;;4.47;2.10;;;;;;;;;;12996778;22;20097;-79
2022/07/30 13:46:27;;;;;;;4.38;2.28;;;;;;;;;;12968174;22;20094;-80
2022/07/30 13:51:28;;;;;;;3.40;2.38;;;;;;;;;;12971866;22;20042;-81
2022/07/30 13:56:29;;;;;;;3.22;1.83;;;;;;;;;;13009411;22;20077;-81
2022/07/30 14:01:30;;;;;;;2.70;1.60;;;;;;;;;;12987340;22;20432;-81
2022/07/30 14:06:31;;;;;;;2.70;1.40;;;;;;;;;;12986204;22;20424;-81
2022/07/30 14:11:35;;;;;;;2.05;1.52;;;;;;;;;;12972358;22;20035;-80
2022/07/30 14:16:36;;;;;;;2.35;1.58;;;;;;;;;;12967670;22;20003;-80
